sensor_id;sensor_type;location;lat;lon;timestamp;temperature;humidity
43151;DHT22;28755;51.478;5.702;2023-02-05T00:00:15;8.40;99.90
43151;DHT22;28755;51.478;5.702;2023-02-05T00:02:41;8.50;99.90
43151;DHT22;28755;51.478;5.702;2023-02-05T00:05:06;8.40;99.90
43151;DHT22;28755;51.478;5.702;2023-02-05T00:07:32;8.50;99.90
43151;DHT22;28755;51.478;5.702;2023-02-05T00:09:57;8.50;99.90
43151;DHT22;28755;51.478;5.702;2023-02-05T00:12:23;8.50;99.90
43151;DHT22;28755;51.478;5.702;2023-02-05T00:14:48;8.50;99.90
43151;DHT22;28755;51.478;5.702;2023-02-05T00:17:14;8.50;99.90
43151;DHT22;28755;51.478;5.702;2023-02-05T00:19:39;8.40;99.90
43151;DHT22;28755;51.478;5.702;2023-02-05T00:22:05;8.40;99.90
43151;DHT22;28755;51.478;5.702;2023-02-05T00:24:30;8.30;99.90
43151;DHT22;28755;51.478;5.702;2023-02-05T00:26:56;8.30;99.90
43151;DHT22;28755;51.478;5.702;2023-02-05T00:29:21;8.30;99.90
43151;DHT22;28755;51.478;5.702;2023-02-05T00:31:47;8.30;99.90
43151;DHT22;28755;51.478;5.702;2023-02-05T00:34:14;8.30;99.90
43151;DHT22;28755;51.478;5.702;2023-02-05T00:36:40;8.30;99.90
43151;DHT22;28755;51.478;5.702;2023-02-05T00:39:05;8.30;99.90
43151;DHT22;28755;51.478;5.702;2023-02-05T00:41:33;8.30;99.90
43151;DHT22;28755;51.478;5.702;2023-02-05T00:43:59;8.40;99.90
43151;DHT22;28755;51.478;5.702;2023-02-05T00:46:24;8.40;99.90
43151;DHT22;28755;51.478;5.702;2023-02-05T00:48:50;8.40;99.90
43151;DHT22;28755;51.478;5.702;2023-02-05T00:51:15;8.40;99.90
43151;DHT22;28755;51.478;5.702;2023-02-05T00:53:41;8.30;99.90
43151;DHT22;28755;51.478;5.702;2023-02-05T00:56:07;8.30;99.90
43151;DHT22;28755;51.478;5.702;2023-02-05T00:58:33;8.30;99.90
43151;DHT22;28755;51.478;5.702;2023-02-05T01:00:58;8.40;99.90
43151;DHT22;28755;51.478;5.702;2023-02-05T01:03:24;8.40;99.90
43151;DHT22;28755;51.478;5.702;2023-02-05T01:05:50;8.40;99.90
43151;DHT22;28755;51.478;5.702;2023-02-05T01:08:15;8.40;99.90
43151;DHT22;28755;51.478;5.702;2023-02-05T01:10:46;8.40;99.90
43151;DHT22;28755;51.478;5.702;2023-02-05T01:13:12;8.40;99.90
43151;DHT22;28755;51.478;5.702;2023-02-05T01:15:38;8.40;99.90
43151;DHT22;28755;51.478;5.702;2023-02-05T01:18:04;8.40;99.90
43151;DHT22;28755;51.478;5.702;2023-02-05T01:20:29;8.40;99.90
43151;DHT22;28755;51.478;5.702;2023-02-05T01:22:55;8.30;99.90
43151;DHT22;28755;51.478;5.702;2023-02-05T01:25:20;8.50;99.90
43151;DHT22;28755;51.478;5.702;2023-02-05T01:27:46;8.40;99.90
43151;DHT22;28755;51.478;5.702;2023-02-05T01:30:12;8.40;99.90
43151;DHT22;28755;51.478;5.702;2023-02-05T01:32:38;8.50;99.90
43151;DHT22;28755;51.478;5.702;2023-02-05T01:35:05;8.40;99.90
43151;DHT22;28755;51.478;5.702;2023-02-05T01:37:30;8.40;99.90
43151;DHT22;28755;51.478;5.702;2023-02-05T01:39:56;8.40;99.90
43151;DHT22;28755;51.478;5.702;2023-02-05T01:42:24;8.50;99.90
43151;DHT22;28755;51.478;5.702;2023-02-05T01:45:26;8.60;99.90
43151;DHT22;28755;51.478;5.702;2023-02-05T01:48:03;8.50;99.90
43151;DHT22;28755;51.478;5.702;2023-02-05T01:50:33;8.50;99.90
43151;DHT22;28755;51.478;5.702;2023-02-05T01:53:05;8.50;99.90
43151;DHT22;28755;51.478;5.702;2023-02-05T01:55:31;8.50;99.90
43151;DHT22;28755;51.478;5.702;2023-02-05T01:57:59;8.50;99.90
43151;DHT22;28755;51.478;5.702;2023-02-05T02:00:25;8.60;99.90
43151;DHT22;28755;51.478;5.702;2023-02-05T02:02:51;8.50;99.90
43151;DHT22;28755;51.478;5.702;2023-02-05T02:05:18;8.50;99.90
43151;DHT22;28755;51.478;5.702;2023-02-05T02:07:44;8.60;99.90
43151;DHT22;28755;51.478;5.702;2023-02-05T02:10:13;8.60;99.90
43151;DHT22;28755;51.478;5.702;2023-02-05T02:12:40;8.50;99.90
43151;DHT22;28755;51.478;5.702;2023-02-05T02:15:14;8.50;99.90
43151;DHT22;28755;51.478;5.702;2023-02-05T02:17:42;8.60;99.90
43151;DHT22;28755;51.478;5.702;2023-02-05T02:20:16;8.50;99.90
43151;DHT22;28755;51.478;5.702;2023-02-05T02:28:17;8.50;99.90
43151;DHT22;28755;51.478;5.702;2023-02-05T02:31:12;8.50;99.90
43151;DHT22;28755;51.478;5.702;2023-02-05T02:33:57;8.40;99.90
43151;DHT22;28755;51.478;5.702;2023-02-05T02:39:10;8.50;99.90
43151;DHT22;28755;51.478;5.702;2023-02-05T02:41:53;8.50;99.90
43151;DHT22;28755;51.478;5.702;2023-02-05T02:47:16;8.50;99.90
43151;DHT22;28755;51.478;5.702;2023-02-05T02:49:56;8.50;99.90
43151;DHT22;28755;51.478;5.702;2023-02-05T02:52:24;8.50;99.90
43151;DHT22;28755;51.478;5.702;2023-02-05T02:54:53;8.40;99.90
43151;DHT22;28755;51.478;5.702;2023-02-05T02:57:22;8.40;99.90
43151;DHT22;28755;51.478;5.702;2023-02-05T02:59:52;8.40;99.90
43151;DHT22;28755;51.478;5.702;2023-02-05T03:02:19;8.50;99.90
43151;DHT22;28755;51.478;5.702;2023-02-05T03:04:54;8.40;99.90
43151;DHT22;28755;51.478;5.702;2023-02-05T03:07:37;8.40;99.90
43151;DHT22;28755;51.478;5.702;2023-02-05T03:10:13;8.50;99.90
43151;DHT22;28755;51.478;5.702;2023-02-05T03:12:41;8.40;99.90
43151;DHT22;28755;51.478;5.702;2023-02-05T03:15:08;8.40;99.90
43151;DHT22;28755;51.478;5.702;2023-02-05T03:17:34;8.40;99.90
43151;DHT22;28755;51.478;5.702;2023-02-05T03:20:07;8.40;99.90
43151;DHT22;28755;51.478;5.702;2023-02-05T03:22:34;8.30;99.90
43151;DHT22;28755;51.478;5.702;2023-02-05T03:25:01;8.30;99.90
43151;DHT22;28755;51.478;5.702;2023-02-05T03:27:28;8.30;99.90
43151;DHT22;28755;51.478;5.702;2023-02-05T03:29:53;8.30;99.90
43151;DHT22;28755;51.478;5.702;2023-02-05T03:32:35;8.30;99.90
43151;DHT22;28755;51.478;5.702;2023-02-05T03:35:22;8.30;99.90
43151;DHT22;28755;51.478;5.702;2023-02-05T03:40:31;8.20;99.90
43151;DHT22;28755;51.478;5.702;2023-02-05T03:43:05;8.20;99.90
43151;DHT22;28755;51.478;5.702;2023-02-05T03:48:41;8.20;99.90
43151;DHT22;28755;51.478;5.702;2023-02-05T03:51:19;8.20;99.90
43151;DHT22;28755;51.478;5.702;2023-02-05T03:56:38;8.20;99.90
43151;DHT22;28755;51.478;5.702;2023-02-05T03:59:05;8.20;99.90
43151;DHT22;28755;51.478;5.702;2023-02-05T04:01:33;8.20;99.90
43151;DHT22;28755;51.478;5.702;2023-02-05T04:03:58;8.20;99.90
43151;DHT22;28755;51.478;5.702;2023-02-05T04:06:24;8.10;99.90
43151;DHT22;28755;51.478;5.702;2023-02-05T04:08:50;8.10;99.90
43151;DHT22;28755;51.478;5.702;2023-02-05T04:11:16;8.20;99.90
43151;DHT22;28755;51.478;5.702;2023-02-05T04:13:41;8.10;99.90
43151;DHT22;28755;51.478;5.702;2023-02-05T04:16:07;8.10;99.90
43151;DHT22;28755;51.478;5.702;2023-02-05T04:18:32;8.10;99.90
43151;DHT22;28755;51.478;5.702;2023-02-05T04:20:58;8.20;99.90
43151;DHT22;28755;51.478;5.702;2023-02-05T04:23:24;8.10;99.90
43151;DHT22;28755;51.478;5.702;2023-02-05T04:25:54;8.10;99.90
43151;DHT22;28755;51.478;5.702;2023-02-05T04:28:20;8.00;99.90
43151;DHT22;28755;51.478;5.702;2023-02-05T04:30:46;8.10;99.90
43151;DHT22;28755;51.478;5.702;2023-02-05T04:33:12;8.00;99.90
43151;DHT22;28755;51.478;5.702;2023-02-05T04:35:37;8.00;99.90
43151;DHT22;28755;51.478;5.702;2023-02-05T04:38:03;8.00;99.90
43151;DHT22;28755;51.478;5.702;2023-02-05T04:40:28;8.00;99.90
43151;DHT22;28755;51.478;5.702;2023-02-05T04:42:54;8.00;99.90
43151;DHT22;28755;51.478;5.702;2023-02-05T04:45:20;8.00;99.90
43151;DHT22;28755;51.478;5.702;2023-02-05T04:47:47;8.00;99.90
43151;DHT22;28755;51.478;5.702;2023-02-05T04:50:12;8.00;99.90
43151;DHT22;28755;51.478;5.702;2023-02-05T04:52:38;8.00;99.90
43151;DHT22;28755;51.478;5.702;2023-02-05T04:55:04;8.00;99.90
43151;DHT22;28755;51.478;5.702;2023-02-05T04:57:30;8.00;99.90
43151;DHT22;28755;51.478;5.702;2023-02-05T04:59:56;8.00;99.90
43151;DHT22;28755;51.478;5.702;2023-02-05T05:02:22;8.00;99.90
43151;DHT22;28755;51.478;5.702;2023-02-05T05:04:48;8.00;99.90
43151;DHT22;28755;51.478;5.702;2023-02-05T05:07:14;7.90;99.90
43151;DHT22;28755;51.478;5.702;2023-02-05T05:09:40;7.90;99.90
43151;DHT22;28755;51.478;5.702;2023-02-05T05:12:06;7.90;99.90
43151;DHT22;28755;51.478;5.702;2023-02-05T05:14:32;7.90;99.90
43151;DHT22;28755;51.478;5.702;2023-02-05T05:16:58;7.90;99.90
43151;DHT22;28755;51.478;5.702;2023-02-05T05:19:23;7.90;99.90
43151;DHT22;28755;51.478;5.702;2023-02-05T05:21:49;7.90;99.90
43151;DHT22;28755;51.478;5.702;2023-02-05T05:24:14;7.90;99.90
43151;DHT22;28755;51.478;5.702;2023-02-05T05:26:40;7.90;99.90
43151;DHT22;28755;51.478;5.702;2023-02-05T05:29:10;7.90;99.90
43151;DHT22;28755;51.478;5.702;2023-02-05T05:31:35;7.90;99.90
43151;DHT22;28755;51.478;5.702;2023-02-05T05:34:01;7.90;99.90
43151;DHT22;28755;51.478;5.702;2023-02-05T05:36:26;7.90;99.90
43151;DHT22;28755;51.478;5.702;2023-02-05T05:38:52;7.90;99.90
43151;DHT22;28755;51.478;5.702;2023-02-05T05:41:22;7.80;99.90
43151;DHT22;28755;51.478;5.702;2023-02-05T05:44:07;7.80;99.90
43151;DHT22;28755;51.478;5.702;2023-02-05T05:46:33;7.80;99.90
43151;DHT22;28755;51.478;5.702;2023-02-05T05:49:01;7.80;99.90
43151;DHT22;28755;51.478;5.702;2023-02-05T05:51:28;7.80;99.90
43151;DHT22;28755;51.478;5.702;2023-02-05T05:53:54;7.80;99.90
43151;DHT22;28755;51.478;5.702;2023-02-05T05:56:19;7.80;99.90
43151;DHT22;28755;51.478;5.702;2023-02-05T05:58:46;7.90;99.90
43151;DHT22;28755;51.478;5.702;2023-02-05T06:01:13;7.80;99.90
43151;DHT22;28755;51.478;5.702;2023-02-05T06:03:39;7.80;99.90
43151;DHT22;28755;51.478;5.702;2023-02-05T06:06:06;7.80;99.90
43151;DHT22;28755;51.478;5.702;2023-02-05T06:08:33;7.70;99.90
43151;DHT22;28755;51.478;5.702;2023-02-05T06:10:59;7.80;99.90
43151;DHT22;28755;51.478;5.702;2023-02-05T06:13:25;7.70;99.90
43151;DHT22;28755;51.478;5.702;2023-02-05T06:15:51;7.80;99.90
43151;DHT22;28755;51.478;5.702;2023-02-05T06:18:19;7.80;99.90
43151;DHT22;28755;51.478;5.702;2023-02-05T06:20:44;7.70;99.90
43151;DHT22;28755;51.478;5.702;2023-02-05T06:23:10;7.80;99.90
43151;DHT22;28755;51.478;5.702;2023-02-05T06:25:36;7.70;99.90
43151;DHT22;28755;51.478;5.702;2023-02-05T06:28:02;7.70;99.90
43151;DHT22;28755;51.478;5.702;2023-02-05T06:30:27;7.80;99.90
43151;DHT22;28755;51.478;5.702;2023-02-05T06:32:53;7.70;99.90
43151;DHT22;28755;51.478;5.702;2023-02-05T06:35:19;7.80;99.90
43151;DHT22;28755;51.478;5.702;2023-02-05T06:37:44;7.80;99.90
43151;DHT22;28755;51.478;5.702;2023-02-05T06:40:11;7.80;99.90
43151;DHT22;28755;51.478;5.702;2023-02-05T06:42:37;7.80;99.90
43151;DHT22;28755;51.478;5.702;2023-02-05T06:45:03;7.90;99.90
43151;DHT22;28755;51.478;5.702;2023-02-05T06:47:29;7.80;99.90
43151;DHT22;28755;51.478;5.702;2023-02-05T06:49:54;7.80;99.90
43151;DHT22;28755;51.478;5.702;2023-02-05T06:52:20;7.80;99.90
43151;DHT22;28755;51.478;5.702;2023-02-05T06:54:46;7.80;99.90
43151;DHT22;28755;51.478;5.702;2023-02-05T06:57:11;7.80;99.90
43151;DHT22;28755;51.478;5.702;2023-02-05T06:59:37;7.80;99.90
43151;DHT22;28755;51.478;5.702;2023-02-05T07:02:02;7.90;99.90
43151;DHT22;28755;51.478;5.702;2023-02-05T07:04:28;7.80;99.90
43151;DHT22;28755;51.478;5.702;2023-02-05T07:06:56;7.70;99.90
43151;DHT22;28755;51.478;5.702;2023-02-05T07:09:22;7.70;99.90
43151;DHT22;28755;51.478;5.702;2023-02-05T07:11:47;7.60;99.90
43151;DHT22;28755;51.478;5.702;2023-02-05T07:14:13;7.40;99.90
43151;DHT22;28755;51.478;5.702;2023-02-05T07:16:38;7.40;99.90
43151;DHT22;28755;51.478;5.702;2023-02-05T07:19:04;7.30;99.90
43151;DHT22;28755;51.478;5.702;2023-02-05T07:21:29;7.30;99.90
43151;DHT22;28755;51.478;5.702;2023-02-05T07:23:55;7.30;99.90
43151;DHT22;28755;51.478;5.702;2023-02-05T07:26:20;7.20;99.90
43151;DHT22;28755;51.478;5.702;2023-02-05T07:28:46;7.20;99.90
43151;DHT22;28755;51.478;5.702;2023-02-05T07:31:13;7.10;99.90
43151;DHT22;28755;51.478;5.702;2023-02-05T07:33:41;7.10;99.90
43151;DHT22;28755;51.478;5.702;2023-02-05T07:36:08;7.10;99.90
43151;DHT22;28755;51.478;5.702;2023-02-05T07:38:35;7.10;99.90
43151;DHT22;28755;51.478;5.702;2023-02-05T07:41:09;7.10;99.90
43151;DHT22;28755;51.478;5.702;2023-02-05T07:43:36;7.10;99.90
43151;DHT22;28755;51.478;5.702;2023-02-05T07:46:04;7.10;99.90
43151;DHT22;28755;51.478;5.702;2023-02-05T07:48:30;7.10;99.90
43151;DHT22;28755;51.478;5.702;2023-02-05T07:50:56;7.10;99.90
43151;DHT22;28755;51.478;5.702;2023-02-05T07:53:22;7.00;99.90
43151;DHT22;28755;51.478;5.702;2023-02-05T07:55:48;7.10;99.90
43151;DHT22;28755;51.478;5.702;2023-02-05T07:58:14;7.10;99.90
43151;DHT22;28755;51.478;5.702;2023-02-05T08:00:40;7.10;99.90
43151;DHT22;28755;51.478;5.702;2023-02-05T08:03:05;7.10;99.90
43151;DHT22;28755;51.478;5.702;2023-02-05T08:05:31;7.10;99.90
43151;DHT22;28755;51.478;5.702;2023-02-05T08:07:57;7.20;99.90
43151;DHT22;28755;51.478;5.702;2023-02-05T08:10:23;7.20;99.90
43151;DHT22;28755;51.478;5.702;2023-02-05T08:12:48;7.20;99.90
43151;DHT22;28755;51.478;5.702;2023-02-05T08:15:17;7.20;99.90
43151;DHT22;28755;51.478;5.702;2023-02-05T08:17:42;7.10;99.90
43151;DHT22;28755;51.478;5.702;2023-02-05T08:20:08;7.10;99.90
43151;DHT22;28755;51.478;5.702;2023-02-05T08:22:36;7.10;99.90
43151;DHT22;28755;51.478;5.702;2023-02-05T08:25:03;7.20;99.90
43151;DHT22;28755;51.478;5.702;2023-02-05T08:27:31;7.20;99.90
43151;DHT22;28755;51.478;5.702;2023-02-05T08:29:57;7.30;99.90
43151;DHT22;28755;51.478;5.702;2023-02-05T08:32:23;7.40;99.90
43151;DHT22;28755;51.478;5.702;2023-02-05T08:34:48;7.50;99.90
43151;DHT22;28755;51.478;5.702;2023-02-05T08:37:14;7.60;99.90
43151;DHT22;28755;51.478;5.702;2023-02-05T08:39:39;7.50;99.90
43151;DHT22;28755;51.478;5.702;2023-02-05T08:42:05;7.50;99.90
43151;DHT22;28755;51.478;5.702;2023-02-05T08:44:30;7.50;99.90
43151;DHT22;28755;51.478;5.702;2023-02-05T08:46:56;7.40;99.90
43151;DHT22;28755;51.478;5.702;2023-02-05T08:49:22;7.30;99.90
43151;DHT22;28755;51.478;5.702;2023-02-05T08:51:47;7.50;99.90
43151;DHT22;28755;51.478;5.702;2023-02-05T08:54:13;7.60;99.90
43151;DHT22;28755;51.478;5.702;2023-02-05T08:56:40;7.50;99.90
43151;DHT22;28755;51.478;5.702;2023-02-05T08:59:07;7.60;99.90
43151;DHT22;28755;51.478;5.702;2023-02-05T09:01:34;7.60;99.90
43151;DHT22;28755;51.478;5.702;2023-02-05T09:04:02;7.40;99.90
43151;DHT22;28755;51.478;5.702;2023-02-05T09:06:28;7.50;99.90
43151;DHT22;28755;51.478;5.702;2023-02-05T09:08:54;7.40;99.90
43151;DHT22;28755;51.478;5.702;2023-02-05T09:11:21;7.50;99.90
43151;DHT22;28755;51.478;5.702;2023-02-05T09:13:47;7.60;99.90
43151;DHT22;28755;51.478;5.702;2023-02-05T09:16:12;7.60;99.90
43151;DHT22;28755;51.478;5.702;2023-02-05T09:18:38;7.60;99.90
43151;DHT22;28755;51.478;5.702;2023-02-05T09:21:08;7.70;99.90
43151;DHT22;28755;51.478;5.702;2023-02-05T09:23:34;7.80;99.90
43151;DHT22;28755;51.478;5.702;2023-02-05T09:25:59;7.80;99.90
43151;DHT22;28755;51.478;5.702;2023-02-05T09:28:25;7.70;99.90
43151;DHT22;28755;51.478;5.702;2023-02-05T09:30:51;7.70;99.90
43151;DHT22;28755;51.478;5.702;2023-02-05T09:33:17;7.70;99.90
43151;DHT22;28755;51.478;5.702;2023-02-05T09:35:43;7.70;99.90
43151;DHT22;28755;51.478;5.702;2023-02-05T09:38:14;7.80;99.90
43151;DHT22;28755;51.478;5.702;2023-02-05T09:40:57;7.80;99.90
43151;DHT22;28755;51.478;5.702;2023-02-05T09:51:45;7.70;99.90
43151;DHT22;28755;51.478;5.702;2023-02-05T09:54:30;7.90;99.90
43151;DHT22;28755;51.478;5.702;2023-02-05T09:57:02;7.80;99.90
43151;DHT22;28755;51.478;5.702;2023-02-05T09:59:29;7.80;99.90
43151;DHT22;28755;51.478;5.702;2023-02-05T10:02:00;7.90;99.90
43151;DHT22;28755;51.478;5.702;2023-02-05T10:04:27;7.90;99.90
43151;DHT22;28755;51.478;5.702;2023-02-05T10:07:08;7.90;99.90
43151;DHT22;28755;51.478;5.702;2023-02-05T10:13:08;8.10;99.90
43151;DHT22;28755;51.478;5.702;2023-02-05T10:24:05;8.20;99.90
43151;DHT22;28755;51.478;5.702;2023-02-05T10:26:50;8.20;99.90
43151;DHT22;28755;51.478;5.702;2023-02-05T10:32:18;8.30;99.90
43151;DHT22;28755;51.478;5.702;2023-02-05T10:35:00;8.30;99.90
43151;DHT22;28755;51.478;5.702;2023-02-05T10:37:44;8.30;99.90
43151;DHT22;28755;51.478;5.702;2023-02-05T10:40:15;8.40;99.90
43151;DHT22;28755;51.478;5.702;2023-02-05T10:45:27;8.70;99.90
43151;DHT22;28755;51.478;5.702;2023-02-05T10:51:14;8.70;99.90
43151;DHT22;28755;51.478;5.702;2023-02-05T10:53:40;8.70;99.90
43151;DHT22;28755;51.478;5.702;2023-02-05T10:56:07;8.60;99.90
43151;DHT22;28755;51.478;5.702;2023-02-05T10:58:39;8.60;99.90
43151;DHT22;28755;51.478;5.702;2023-02-05T11:01:32;8.60;99.90
43151;DHT22;28755;51.478;5.702;2023-02-05T11:04:16;8.60;99.90
43151;DHT22;28755;51.478;5.702;2023-02-05T11:06:46;8.50;99.90
43151;DHT22;28755;51.478;5.702;2023-02-05T11:12:00;8.40;99.90
43151;DHT22;28755;51.478;5.702;2023-02-05T11:14:38;8.50;99.90
43151;DHT22;28755;51.478;5.702;2023-02-05T11:17:19;8.70;99.90
43151;DHT22;28755;51.478;5.702;2023-02-05T11:19:54;8.80;99.90
43151;DHT22;28755;51.478;5.702;2023-02-05T11:22:32;9.00;99.90
43151;DHT22;28755;51.478;5.702;2023-02-05T11:25:16;9.30;99.90
43151;DHT22;28755;51.478;5.702;2023-02-05T11:27:51;9.50;99.90
43151;DHT22;28755;51.478;5.702;2023-02-05T11:32:52;9.30;99.90
43151;DHT22;28755;51.478;5.702;2023-02-05T11:35:25;9.20;99.90
43151;DHT22;28755;51.478;5.702;2023-02-05T11:38:30;9.00;99.90
43151;DHT22;28755;51.478;5.702;2023-02-05T11:40:58;9.00;99.90
43151;DHT22;28755;51.478;5.702;2023-02-05T11:43:39;8.70;99.90
43151;DHT22;28755;51.478;5.702;2023-02-05T11:46:15;8.70;99.90
43151;DHT22;28755;51.478;5.702;2023-02-05T11:48:45;8.70;99.90
43151;DHT22;28755;51.478;5.702;2023-02-05T11:51:15;8.70;99.90
43151;DHT22;28755;51.478;5.702;2023-02-05T11:53:57;8.80;99.90
43151;DHT22;28755;51.478;5.702;2023-02-05T11:56:24;8.80;99.90
43151;DHT22;28755;51.478;5.702;2023-02-05T11:59:01;8.70;99.90
43151;DHT22;28755;51.478;5.702;2023-02-05T12:01:33;8.80;99.90
43151;DHT22;28755;51.478;5.702;2023-02-05T12:04:02;8.70;99.90
43151;DHT22;28755;51.478;5.702;2023-02-05T12:07:05;8.80;99.90
43151;DHT22;28755;51.478;5.702;2023-02-05T12:09:34;8.70;99.90
43151;DHT22;28755;51.478;5.702;2023-02-05T12:12:21;8.80;99.90
43151;DHT22;28755;51.478;5.702;2023-02-05T12:15:00;8.80;99.90
43151;DHT22;28755;51.478;5.702;2023-02-05T12:22:53;8.90;99.90
43151;DHT22;28755;51.478;5.702;2023-02-05T12:25:26;8.90;99.90
43151;DHT22;28755;51.478;5.702;2023-02-05T12:31:17;9.00;99.90
43151;DHT22;28755;51.478;5.702;2023-02-05T12:44:33;9.70;99.90
43151;DHT22;28755;51.478;5.702;2023-02-05T12:47:14;10.20;99.90
43151;DHT22;28755;51.478;5.702;2023-02-05T12:52:51;9.90;99.90
43151;DHT22;28755;51.478;5.702;2023-02-05T12:55:35;9.70;99.90
43151;DHT22;28755;51.478;5.702;2023-02-05T12:58:09;9.90;99.90
43151;DHT22;28755;51.478;5.702;2023-02-05T13:00:42;9.90;99.90
43151;DHT22;28755;51.478;5.702;2023-02-05T13:05:47;9.60;99.90
43151;DHT22;28755;51.478;5.702;2023-02-05T13:11:33;11.10;99.90
43151;DHT22;28755;51.478;5.702;2023-02-05T13:14:07;11.20;99.90
43151;DHT22;28755;51.478;5.702;2023-02-05T13:16:44;10.70;99.90
43151;DHT22;28755;51.478;5.702;2023-02-05T13:19:37;10.70;99.90
43151;DHT22;28755;51.478;5.702;2023-02-05T13:28:03;13.20;99.90
43151;DHT22;28755;51.478;5.702;2023-02-05T13:30:54;13.00;99.90
43151;DHT22;28755;51.478;5.702;2023-02-05T13:33:21;12.40;99.90
43151;DHT22;28755;51.478;5.702;2023-02-05T13:44:32;10.60;99.90
43151;DHT22;28755;51.478;5.702;2023-02-05T13:50:28;10.20;99.90
43151;DHT22;28755;51.478;5.702;2023-02-05T13:58:10;9.70;99.90
43151;DHT22;28755;51.478;5.702;2023-02-05T14:00:40;9.60;99.90
43151;DHT22;28755;51.478;5.702;2023-02-05T14:03:07;9.50;99.90
43151;DHT22;28755;51.478;5.702;2023-02-05T14:05:38;9.50;99.90
43151;DHT22;28755;51.478;5.702;2023-02-05T14:08:05;9.30;99.90
43151;DHT22;28755;51.478;5.702;2023-02-05T14:10:44;9.40;99.90
43151;DHT22;28755;51.478;5.702;2023-02-05T14:13:29;9.30;99.90
43151;DHT22;28755;51.478;5.702;2023-02-05T14:19:10;9.30;99.90
43151;DHT22;28755;51.478;5.702;2023-02-05T14:24:41;9.30;99.90
43151;DHT22;28755;51.478;5.702;2023-02-05T14:27:45;9.50;99.90
43151;DHT22;28755;51.478;5.702;2023-02-05T14:32:59;10.90;99.90
43151;DHT22;28755;51.478;5.702;2023-02-05T14:35:40;11.20;99.90
43151;DHT22;28755;51.478;5.702;2023-02-05T14:38:15;11.00;99.90
43151;DHT22;28755;51.478;5.702;2023-02-05T14:41:00;10.70;99.90
43151;DHT22;28755;51.478;5.702;2023-02-05T14:43:33;10.30;99.90
43151;DHT22;28755;51.478;5.702;2023-02-05T14:46:39;10.00;99.90
43151;DHT22;28755;51.478;5.702;2023-02-05T14:49:19;9.80;99.90
43151;DHT22;28755;51.478;5.702;2023-02-05T14:51:53;9.50;99.90
43151;DHT22;28755;51.478;5.702;2023-02-05T14:54:26;9.50;99.90
43151;DHT22;28755;51.478;5.702;2023-02-05T14:57:06;9.50;99.90
43151;DHT22;28755;51.478;5.702;2023-02-05T14:59:41;9.60;99.90
43151;DHT22;28755;51.478;5.702;2023-02-05T15:05:19;9.50;99.90
43151;DHT22;28755;51.478;5.702;2023-02-05T15:07:48;9.60;99.90
43151;DHT22;28755;51.478;5.702;2023-02-05T15:10:22;9.60;99.90
43151;DHT22;28755;51.478;5.702;2023-02-05T15:13:02;9.60;99.90
43151;DHT22;28755;51.478;5.702;2023-02-05T15:18:23;9.80;99.90
43151;DHT22;28755;51.478;5.702;2023-02-05T15:20:52;9.90;99.90
43151;DHT22;28755;51.478;5.702;2023-02-05T15:23:34;10.00;99.90
43151;DHT22;28755;51.478;5.702;2023-02-05T15:26:13;10.20;99.90
43151;DHT22;28755;51.478;5.702;2023-02-05T15:29:01;10.60;99.90
43151;DHT22;28755;51.478;5.702;2023-02-05T15:31:29;10.50;99.90
43151;DHT22;28755;51.478;5.702;2023-02-05T15:37:01;10.40;99.90
43151;DHT22;28755;51.478;5.702;2023-02-05T15:39:34;10.10;99.90
43151;DHT22;28755;51.478;5.702;2023-02-05T15:42:04;9.80;99.90
43151;DHT22;28755;51.478;5.702;2023-02-05T15:44:32;9.50;99.90
43151;DHT22;28755;51.478;5.702;2023-02-05T15:47:02;9.40;99.90
43151;DHT22;28755;51.478;5.702;2023-02-05T15:49:36;9.40;99.90
43151;DHT22;28755;51.478;5.702;2023-02-05T15:52:03;9.40;99.90
43151;DHT22;28755;51.478;5.702;2023-02-05T15:54:31;9.30;99.90
43151;DHT22;28755;51.478;5.702;2023-02-05T15:56:58;9.30;99.90
43151;DHT22;28755;51.478;5.702;2023-02-05T15:59:26;9.30;99.90
43151;DHT22;28755;51.478;5.702;2023-02-05T16:02:22;9.30;99.90
43151;DHT22;28755;51.478;5.702;2023-02-05T16:05:12;9.30;99.90
43151;DHT22;28755;51.478;5.702;2023-02-05T16:07:41;9.10;99.90
43151;DHT22;28755;51.478;5.702;2023-02-05T16:10:20;9.00;99.90
43151;DHT22;28755;51.478;5.702;2023-02-05T16:13:16;8.90;99.90
43151;DHT22;28755;51.478;5.702;2023-02-05T16:20:54;8.60;99.90
43151;DHT22;28755;51.478;5.702;2023-02-05T16:23:32;8.60;99.90
43151;DHT22;28755;51.478;5.702;2023-02-05T16:26:11;8.50;99.90
43151;DHT22;28755;51.478;5.702;2023-02-05T16:28:48;8.40;99.90
43151;DHT22;28755;51.478;5.702;2023-02-05T16:31:22;8.40;99.90
43151;DHT22;28755;51.478;5.702;2023-02-05T16:36:39;8.20;99.90
43151;DHT22;28755;51.478;5.702;2023-02-05T16:39:17;8.20;99.90
43151;DHT22;28755;51.478;5.702;2023-02-05T16:41:44;8.20;99.90
43151;DHT22;28755;51.478;5.702;2023-02-05T16:44:38;8.10;99.90
43151;DHT22;28755;51.478;5.702;2023-02-05T16:47:11;8.00;99.90
43151;DHT22;28755;51.478;5.702;2023-02-05T16:49:38;7.90;99.90
43151;DHT22;28755;51.478;5.702;2023-02-05T16:52:12;7.90;99.90
43151;DHT22;28755;51.478;5.702;2023-02-05T16:54:47;7.80;99.90
43151;DHT22;28755;51.478;5.702;2023-02-05T16:57:15;7.80;99.90
43151;DHT22;28755;51.478;5.702;2023-02-05T17:00:02;7.70;99.90
43151;DHT22;28755;51.478;5.702;2023-02-05T17:02:34;7.70;99.90
43151;DHT22;28755;51.478;5.702;2023-02-05T17:05:03;7.70;99.90
43151;DHT22;28755;51.478;5.702;2023-02-05T17:07:30;7.60;99.90
43151;DHT22;28755;51.478;5.702;2023-02-05T17:10:13;7.60;99.90
43151;DHT22;28755;51.478;5.702;2023-02-05T17:13:00;7.50;99.90
43151;DHT22;28755;51.478;5.702;2023-02-05T17:15:38;7.40;99.90
43151;DHT22;28755;51.478;5.702;2023-02-05T17:18:51;7.40;99.90
43151;DHT22;28755;51.478;5.702;2023-02-05T17:21:29;7.30;99.90
43151;DHT22;28755;51.478;5.702;2023-02-05T17:23:55;7.40;99.90
43151;DHT22;28755;51.478;5.702;2023-02-05T17:26:23;7.30;99.90
43151;DHT22;28755;51.478;5.702;2023-02-05T17:28:55;7.30;99.90
43151;DHT22;28755;51.478;5.702;2023-02-05T17:31:22;7.30;99.90
43151;DHT22;28755;51.478;5.702;2023-02-05T17:33:52;7.20;99.90
43151;DHT22;28755;51.478;5.702;2023-02-05T17:36:18;7.20;99.90
43151;DHT22;28755;51.478;5.702;2023-02-05T17:38:44;7.20;99.90
43151;DHT22;28755;51.478;5.702;2023-02-05T17:41:16;7.20;99.90
43151;DHT22;28755;51.478;5.702;2023-02-05T17:44:01;7.20;99.90
43151;DHT22;28755;51.478;5.702;2023-02-05T17:46:27;7.20;99.90
43151;DHT22;28755;51.478;5.702;2023-02-05T17:48:52;7.20;99.90
43151;DHT22;28755;51.478;5.702;2023-02-05T17:51:20;7.10;99.90
43151;DHT22;28755;51.478;5.702;2023-02-05T17:53:47;7.10;99.90
43151;DHT22;28755;51.478;5.702;2023-02-05T17:56:12;7.00;99.90
43151;DHT22;28755;51.478;5.702;2023-02-05T17:58:39;6.90;99.90
43151;DHT22;28755;51.478;5.702;2023-02-05T18:01:05;6.90;99.90
43151;DHT22;28755;51.478;5.702;2023-02-05T18:03:30;6.80;99.90
43151;DHT22;28755;51.478;5.702;2023-02-05T18:05:59;6.70;99.90
43151;DHT22;28755;51.478;5.702;2023-02-05T18:08:24;6.60;99.90
43151;DHT22;28755;51.478;5.702;2023-02-05T18:10:50;6.70;99.90
43151;DHT22;28755;51.478;5.702;2023-02-05T18:13:16;6.60;99.90
43151;DHT22;28755;51.478;5.702;2023-02-05T18:15:42;6.60;99.90